Time;durP1;ratioP1;P1;durP2;ratioP2;P2;SDS_P1;SDS_P2;PMS_P1;PMS_P2;Temp;Humidity;BMP_temperature;BMP_pressure;BME280_temperature;BME280_humidity;BME280_pressure;Samples;Min_cycle;Max_cycle;Signal;HPM_P1;HPM_P2
2022/07/02 00:02:34;;;;;;;8.70;6.50;;;16.40;1.00;;;;;;5044065;28;20207;-54
2022/07/02 00:05:06;;;;;;;8.73;7.40;;;16.40;1.00;;;;;;5024111;28;20618;-55
2022/07/02 00:07:32;;;;;;;7.87;7.00;;;16.40;1.00;;;;;;5024686;28;20518;-52
2022/07/02 00:09:58;;;;;;;9.43;7.07;;;16.40;1.00;;;;;;5030499;28;20439;-54
2022/07/02 00:12:26;;;;;;;7.27;6.57;;;16.40;1.00;;;;;;5024011;28;20900;-55
2022/07/02 00:14:58;;;;;;;6.77;6.07;;;16.50;1.00;;;;;;5024739;28;20453;-53
2022/07/02 00:17:24;;;;;;;8.57;6.60;;;16.50;1.00;;;;;;5027417;28;20467;-55
2022/07/02 00:19:52;;;;;;;7.10;6.40;;;16.70;1.00;;;;;;5039033;28;21060;-55
2022/07/02 00:22:39;;;;;;;6.60;6.00;;;16.60;1.00;;;;;;5027113;28;20476;-55
2022/07/02 00:25:05;;;;;;;7.53;4.63;;;16.50;1.00;;;;;;5022994;28;20444;-55
2022/07/02 00:27:32;;;;;;;7.03;5.90;;;16.40;1.00;;;;;;5021968;28;20845;-54
2022/07/02 00:30:03;;;;;;;5.70;5.10;;;16.30;1.00;;;;;;5024030;28;20803;-56
2022/07/02 00:35:18;;;;;;;5.40;4.90;;;16.50;1.00;;;;;;5022643;28;20447;-54
2022/07/02 00:38:04;;;;;;;7.43;4.83;;;16.50;1.00;;;;;;5025240;28;20512;-56
2022/07/02 00:40:31;;;;;;;5.90;5.40;;;16.70;1.00;;;;;;5020599;28;20492;-56
2022/07/02 00:42:58;;;;;;;5.40;4.90;;;16.60;1.00;;;;;;5028046;28;20880;-55
2022/07/02 00:45:26;;;;;;;5.93;5.33;;;16.60;1.00;;;;;;5029794;28;20443;-55
2022/07/02 00:47:56;;;;;;;6.10;5.50;;;16.50;1.00;;;;;;5025688;28;20447;-55
2022/07/02 00:50:22;;;;;;;6.37;5.33;;;16.50;1.00;;;;;;5028160;28;20530;-55
2022/07/02 00:52:49;;;;;;;4.90;4.43;;;16.50;1.00;;;;;;5024518;28;21014;-54
2022/07/02 00:55:14;;;;;;;5.60;5.00;;;16.50;1.00;;;;;;5028773;28;20479;-55
2022/07/02 00:57:40;;;;;;;5.23;4.67;;;16.50;1.00;;;;;;5022913;28;20941;-52
2022/07/02 01:00:09;;;;;;;5.87;5.27;;;16.60;1.00;;;;;;5025165;28;20193;-55
2022/07/02 01:02:36;;;;;;;4.90;4.50;;;16.50;1.00;;;;;;5028787;28;20669;-54
2022/07/02 01:05:02;;;;;;;5.80;5.17;;;16.50;1.00;;;;;;5024425;28;21037;-51
2022/07/02 01:07:30;;;;;;;5.00;4.50;;;16.40;1.00;;;;;;5029413;28;20501;-54
2022/07/02 01:10:17;;;;;;;5.30;4.80;;;16.40;1.00;;;;;;5019433;28;20880;-53
2022/07/02 01:12:48;;;;;;;4.93;4.40;;;16.30;1.00;;;;;;5027933;28;20467;-54
2022/07/02 01:15:15;;;;;;;4.70;4.40;;;16.40;1.00;;;;;;5028926;28;20446;-54
2022/07/02 01:17:49;;;;;;;4.23;3.83;;;16.40;1.00;;;;;;5027757;28;20450;-56
2022/07/02 01:20:15;;;;;;;5.33;4.20;;;16.30;1.00;;;;;;5027562;28;20992;-55
2022/07/02 01:22:44;;;;;;;4.50;3.97;;;16.30;1.00;;;;;;5029985;28;20435;-54
2022/07/02 01:25:09;;;;;;;5.80;3.80;;;16.20;1.00;;;;;;5026490;28;20197;-53
2022/07/02 01:28:15;;;;;;;4.50;4.10;;;16.20;1.00;;;;;;5029192;28;20475;-55
2022/07/02 01:30:41;;;;;;;4.20;3.80;;;16.10;1.00;;;;;;5026887;28;20220;-54
2022/07/02 01:33:07;;;;;;;4.70;4.33;;;16.20;1.00;;;;;;5023843;28;20450;-53
2022/07/02 01:35:32;;;;;;;4.30;3.47;;;16.10;1.00;;;;;;5028957;28;20201;-54
2022/07/02 01:37:58;;;;;;;4.50;3.53;;;16.10;1.00;;;;;;5028584;28;20587;-55
2022/07/02 01:40:23;;;;;;;3.93;3.63;;;16.10;1.00;;;;;;5020972;28;20670;-55
2022/07/02 01:43:18;;;;;;;5.13;4.70;;;16.10;1.00;;;;;;5023310;28;20236;-52
2022/07/02 01:45:43;;;;;;;5.77;4.90;;;16.20;1.00;;;;;;5026159;28;20531;-55
2022/07/02 01:50:36;;;;;;;3.93;3.63;;;16.20;1.00;;;;;;5026139;28;20262;-54
2022/07/02 01:53:01;;;;;;;3.10;2.80;;;16.20;1.00;;;;;;5033438;28;20495;-54
2022/07/02 01:55:27;;;;;;;5.07;4.57;;;16.20;1.00;;;;;;5024491;28;20516;-54
2022/07/02 01:57:53;;;;;;;9.20;4.60;;;16.20;1.00;;;;;;5031388;28;20196;-55
2022/07/02 02:00:19;;;;;;;6.50;4.10;;;16.10;1.00;;;;;;5032411;28;20530;-54
2022/07/02 02:02:53;;;;;;;4.00;3.50;;;16.10;1.00;;;;;;5028431;28;20943;-55
2022/07/02 02:05:18;;;;;;;3.13;2.90;;;16.10;1.00;;;;;;5027638;28;20661;-55
2022/07/02 02:11:10;;;;;;;4.90;4.50;;;16.10;1.00;;;;;;5018926;28;20303;-56
2022/07/02 02:13:36;;;;;;;6.80;4.40;;;16.10;1.00;;;;;;5030931;28;20577;-55
2022/07/02 02:16:02;;;;;;;4.97;4.57;;;16.10;1.00;;;;;;5028462;28;21212;-54
2022/07/02 02:18:27;;;;;;;4.83;4.43;;;16.10;1.00;;;;;;5038935;28;20585;-53
2022/07/02 02:20:53;;;;;;;4.80;4.37;;;16.10;1.00;;;;;;5026757;28;20192;-52
2022/07/02 02:25:44;;;;;;;4.93;4.53;;;15.90;1.00;;;;;;5026745;28;20214;-55
2022/07/02 02:28:30;;;;;;;5.27;4.77;;;16.00;1.00;;;;;;5027277;28;20192;-55
2022/07/02 02:30:56;;;;;;;5.50;5.00;;;16.00;1.00;;;;;;5034680;28;20233;-53
2022/07/02 02:33:21;;;;;;;6.90;4.37;;;16.00;1.00;;;;;;5028945;28;21054;-54
2022/07/02 02:35:47;;;;;;;5.63;4.90;;;15.90;1.00;;;;;;5029541;28;20181;-54
2022/07/02 02:38:12;;;;;;;5.67;4.87;;;15.80;1.00;;;;;;5025993;28;20638;-53
2022/07/02 02:40:38;;;;;;;4.70;4.30;;;15.80;1.00;;;;;;5029310;28;20284;-53
2022/07/02 02:46:18;;;;;;;5.33;4.60;;;15.70;1.00;;;;;;5021557;28;20188;-54
2022/07/02 02:48:45;;;;;;;5.23;4.77;;;15.70;1.00;;;;;;5031288;28;20451;-55
2022/07/02 02:51:14;;;;;;;8.33;5.53;;;15.70;1.00;;;;;;5025707;28;20189;-52
2022/07/02 02:53:50;;;;;;;5.67;5.17;;;15.70;1.00;;;;;;5031314;28;20482;-53
2022/07/02 02:56:15;;;;;;;7.27;5.50;;;15.80;1.00;;;;;;5023948;28;20459;-55
2022/07/02 02:59:01;;;;;;;4.70;4.30;;;15.70;1.00;;;;;;5028837;28;20449;-56
2022/07/02 03:01:27;;;;;;;6.50;4.20;;;15.70;1.00;;;;;;5027226;28;20192;-56
2022/07/02 03:03:52;;;;;;;5.17;4.67;;;15.70;1.00;;;;;;5026512;28;20447;-54
2022/07/02 03:06:20;;;;;;;4.93;4.20;;;15.70;1.00;;;;;;5025960;28;20599;-52
2022/07/02 03:11:20;;;;;;;6.93;5.20;;;15.70;1.00;;;;;;5025691;28;20450;-55
2022/07/02 03:14:15;;;;;;;4.80;4.40;;;15.70;1.00;;;;;;5030090;28;20808;-56
2022/07/02 03:20:14;;;;;;;6.00;4.87;;;15.70;1.00;;;;;;5016193;28;20451;-54
2022/07/02 03:26:06;;;;;;;4.83;4.43;;;15.80;1.00;;;;;;5000057;28;20213;-55
2022/07/02 03:28:52;;;;;;;4.93;4.53;;;15.80;1.00;;;;;;5025531;28;20451;-53
2022/07/02 03:31:17;;;;;;;5.70;4.53;;;15.80;1.00;;;;;;5030127;28;20219;-56
2022/07/02 03:33:43;;;;;;;6.90;5.20;;;15.90;1.00;;;;;;5025188;28;20456;-54
2022/07/02 03:36:11;;;;;;;4.50;4.10;;;15.90;1.00;;;;;;5023760;28;20188;-54
2022/07/02 03:38:37;;;;;;;4.03;3.73;;;16.10;1.00;;;;;;5034804;28;20189;-55
2022/07/02 03:41:03;;;;;;;3.70;3.40;;;16.30;1.00;;;;;;5027007;28;20445;-54
2022/07/02 03:43:37;;;;;;;3.83;3.53;;;16.50;1.00;;;;;;5024672;28;20957;-55
2022/07/02 03:46:03;;;;;;;4.27;3.83;;;16.70;1.00;;;;;;5023063;28;20184;-54
2022/07/02 03:51:25;;;;;;;5.10;4.10;;;17.20;1.00;;;;;;5029212;28;20236;-55
2022/07/02 03:54:11;;;;;;;4.10;3.53;;;17.50;1.00;;;;;;5029058;28;20799;-54
2022/07/02 04:00:14;;;;;;;4.90;4.30;;;17.70;1.00;;;;;;4981751;28;20470;-54
2022/07/02 04:06:05;;;;;;;5.20;4.70;;;17.00;1.00;;;;;;4983044;28;20216;-54
2022/07/02 04:08:31;;;;;;;6.07;4.70;;;16.90;1.00;;;;;;5008182;28;20499;-55
2022/07/02 04:10:57;;;;;;;7.00;4.87;;;16.90;1.00;;;;;;5030282;28;20193;-55
2022/07/02 04:13:32;;;;;;;6.20;5.00;;;16.90;1.00;;;;;;5041567;28;20470;-55
2022/07/02 04:15:57;;;;;;;7.23;4.93;;;16.80;1.00;;;;;;5027423;28;20188;-53
2022/07/02 04:18:43;;;;;;;6.80;5.50;;;16.80;1.00;;;;;;5027991;28;20410;-53
2022/07/02 04:21:08;;;;;;;5.00;4.50;;;16.70;1.00;;;;;;5024661;28;20189;-54
2022/07/02 04:24:14;;;;;;;5.53;5.13;;;16.70;1.00;;;;;;5033430;28;20467;-53
2022/07/02 04:30:14;;;;;;;8.20;5.53;;;16.80;1.00;;;;;;5004601;28;20483;-55
2022/07/02 04:36:06;;;;;;;10.00;5.50;;;16.90;1.00;;;;;;5003477;28;20225;-55
2022/07/02 04:38:43;;;;;;;6.27;5.67;;;16.90;1.00;;;;;;5006718;28;20830;-56
2022/07/02 04:41:08;;;;;;;5.03;4.63;;;16.90;1.00;;;;;;5006916;28;20220;-56
2022/07/02 04:46:43;;;;;;;6.80;6.20;;;17.00;1.00;;;;;;4996064;28;20700;-53
2022/07/02 04:49:09;;;;;;;6.27;5.77;;;17.10;1.00;;;;;;5006714;28;20448;-52
2022/07/02 04:51:34;;;;;;;5.77;5.23;;;17.00;1.00;;;;;;5005491;28;20472;-53
2022/07/02 04:56:27;;;;;;;7.90;5.90;;;17.10;1.00;;;;;;5001721;28;20193;-54
2022/07/02 04:59:13;;;;;;;6.70;5.40;;;17.20;1.00;;;;;;5008990;28;20456;-54
2022/07/02 05:01:38;;;;;;;6.30;5.17;;;17.30;1.00;;;;;;5009537;28;20763;-53
2022/07/02 05:04:24;;;;;;;5.40;4.73;;;17.30;1.00;;;;;;5009133;28;20525;-55
2022/07/02 05:10:34;;;;;;;7.07;5.03;;;17.40;1.00;;;;;;4927065;29;20590;-55
2022/07/02 05:16:27;;;;;;;7.93;5.13;;;17.70;1.00;;;;;;4935821;28;20727;-54
2022/07/02 05:19:33;;;;;;;7.37;4.30;;;17.80;1.00;;;;;;4969825;28;20413;-54
2022/07/02 05:25:34;;;;;;;4.60;4.20;;;17.80;1.00;;;;;;4934811;28;20795;-52
2022/07/02 05:31:25;;;;;;;4.50;4.10;;;18.10;1.00;;;;;;4978762;28;20267;-55
2022/07/02 05:33:51;;;;;;;5.97;4.00;;;18.20;1.00;;;;;;4991364;28;20487;-52
2022/07/02 05:39:43;;;;;;;4.40;4.00;;;18.30;1.00;;;;;;4982192;28;20202;-55
2022/07/02 05:42:08;;;;;;;4.37;4.00;;;18.40;1.00;;;;;;4989099;28;20527;-53
2022/07/02 05:44:34;;;;;;;4.43;4.00;;;18.50;1.00;;;;;;4985392;28;20186;-55
2022/07/02 05:47:00;;;;;;;4.50;4.00;;;18.70;1.00;;;;;;4993858;28;20194;-56
2022/07/02 05:49:25;;;;;;;5.73;4.13;;;18.80;1.00;;;;;;4991384;28;20426;-53
2022/07/02 05:51:51;;;;;;;5.70;3.93;;;18.90;1.00;;;;;;4991400;28;20276;-54
2022/07/02 05:54:16;;;;;;;4.10;3.70;;;19.00;1.00;;;;;;4993369;28;20572;-52
2022/07/02 05:56:42;;;;;;;3.67;3.30;;;19.00;1.00;;;;;;4992285;28;20186;-54
2022/07/02 05:59:08;;;;;;;4.70;3.77;;;19.00;1.00;;;;;;4998495;28;20193;-54
2022/07/02 06:01:33;;;;;;;4.97;3.60;;;19.10;1.00;;;;;;4990187;28;20186;-54
2022/07/02 06:03:59;;;;;;;3.87;3.43;;;19.10;1.00;;;;;;5002965;28;20177;-54
2022/07/02 06:09:08;;;;;;;3.43;3.13;;;19.30;1.00;;;;;;4993719;28;20248;-55
2022/07/02 06:11:34;;;;;;;3.80;3.47;;;19.60;1.00;;;;;;4988554;28;20423;-53
2022/07/02 06:13:59;;;;;;;4.13;3.40;;;19.70;1.00;;;;;;4993181;28;20201;-55
2022/07/02 06:16:27;;;;;;;3.73;3.20;;;19.80;1.00;;;;;;4986395;28;20194;-53
2022/07/02 06:18:53;;;;;;;3.90;3.37;;;20.10;1.00;;;;;;4990080;28;20190;-55
2022/07/02 06:21:19;;;;;;;4.33;3.40;;;20.20;1.00;;;;;;4991285;28;20432;-56
2022/07/02 06:23:44;;;;;;;5.80;3.40;;;20.40;1.00;;;;;;4990085;28;20620;-56
2022/07/02 06:26:10;;;;;;;3.50;3.13;;;20.60;1.00;;;;;;4986086;28;20209;-54
2022/07/02 06:28:35;;;;;;;4.10;3.70;;;20.60;1.00;;;;;;4992780;28;20194;-54
2022/07/02 06:31:01;;;;;;;4.47;3.40;;;20.70;1.00;;;;;;5011562;28;20296;-55
2022/07/02 06:33:26;;;;;;;4.50;3.00;;;20.80;1.00;;;;;;5026756;28;20251;-53
2022/07/02 06:35:52;;;;;;;6.97;3.03;;;21.00;1.00;;;;;;5032057;28;20189;-54
2022/07/02 06:38:18;;;;;;;3.90;3.00;;;21.10;1.00;;;;;;5031019;28;20527;-55
2022/07/02 06:40:43;;;;;;;3.13;2.80;;;21.10;1.00;;;;;;5032241;28;20189;-55
2022/07/02 06:43:09;;;;;;;4.73;3.17;;;21.20;1.00;;;;;;5030531;28;20297;-56
2022/07/02 06:45:34;;;;;;;5.90;3.20;;;21.20;1.00;;;;;;5025936;28;20703;-54
2022/07/02 06:48:00;;;;;;;3.80;3.10;;;21.00;1.00;;;;;;5028569;28;20192;-54
2022/07/02 06:50:26;;;;;;;3.83;3.53;;;21.00;1.00;;;;;;5052052;28;20187;-54
2022/07/02 06:52:51;;;;;;;7.23;3.40;;;21.10;1.00;;;;;;5037184;28;20305;-54
2022/07/02 06:55:20;;;;;;;3.03;2.73;;;21.20;1.00;;;;;;5032263;28;20550;-55
2022/07/02 06:57:46;;;;;;;5.27;2.80;;;21.40;1.00;;;;;;5029401;28;20200;-53
2022/07/02 07:00:12;;;;;;;4.27;3.07;;;21.40;1.00;;;;;;5033158;28;20421;-55
2022/07/02 07:02:38;;;;;;;4.07;3.03;;;21.50;1.00;;;;;;5035038;28;20431;-55
2022/07/02 07:05:04;;;;;;;3.50;3.20;;;21.80;1.00;;;;;;5051734;28;20442;-53
2022/07/02 07:07:31;;;;;;;2.80;2.60;;;22.10;1.00;;;;;;5042386;28;20188;-55
2022/07/02 07:09:56;;;;;;;4.90;3.70;;;22.20;1.00;;;;;;5051814;28;20413;-55
2022/07/02 07:12:22;;;;;;;4.20;3.07;;;22.30;1.00;;;;;;5039196;28;20541;-53
2022/07/02 07:14:48;;;;;;;3.40;3.10;;;22.30;1.00;;;;;;5030738;28;20173;-54
2022/07/02 07:17:14;;;;;;;4.20;3.30;;;22.20;1.00;;;;;;5036141;28;20180;-56
2022/07/02 07:19:40;;;;;;;3.30;3.00;;;22.30;1.00;;;;;;5030824;28;20288;-55
2022/07/02 07:22:06;;;;;;;4.50;3.23;;;22.30;1.00;;;;;;5030439;28;20501;-53
2022/07/02 07:24:31;;;;;;;15.43;4.30;;;22.30;1.00;;;;;;5030497;28;20494;-53
2022/07/02 07:27:00;;;;;;;4.73;2.90;;;22.60;1.00;;;;;;5031301;28;20289;-55
2022/07/02 07:29:25;;;;;;;2.93;2.73;;;22.80;1.00;;;;;;5032530;28;20211;-55
2022/07/02 07:31:51;;;;;;;3.47;2.83;;;22.90;1.00;;;;;;5030325;28;20858;-56
2022/07/02 07:34:16;;;;;;;3.77;3.00;;;23.00;1.00;;;;;;5031436;28;20219;-55
2022/07/02 07:36:42;;;;;;;3.50;2.80;;;23.30;1.00;;;;;;5030307;28;20192;-56
2022/07/02 07:39:08;;;;;;;5.50;3.63;;;23.20;1.00;;;;;;5033216;28;20214;-57
2022/07/02 07:41:34;;;;;;;4.83;3.40;;;23.30;1.00;;;;;;5024811;28;20212;-54
2022/07/02 07:44:01;;;;;;;5.10;2.80;;;23.30;1.00;;;;;;5045871;28;20428;-54
2022/07/02 07:46:27;;;;;;;3.23;2.97;;;23.50;1.00;;;;;;5034428;28;20425;-55
2022/07/02 07:48:52;;;;;;;4.70;3.13;;;23.50;1.00;;;;;;5030164;28;20451;-54
2022/07/02 07:51:18;;;;;;;3.13;2.83;;;23.50;1.00;;;;;;5031045;28;20196;-54
2022/07/02 07:53:44;;;;;;;4.60;3.30;;;23.70;1.00;;;;;;5030948;28;20262;-57
2022/07/02 07:56:15;;;;;;;3.10;2.87;;;23.70;1.00;;;;;;5030844;28;21009;-56
2022/07/02 07:58:41;;;;;;;4.73;3.40;;;23.80;1.00;;;;;;5029625;28;20196;-55
2022/07/02 08:01:07;;;;;;;3.37;3.17;;;24.00;1.00;;;;;;5030209;28;20741;-53
2022/07/02 08:03:32;;;;;;;4.40;3.10;;;23.80;1.00;;;;;;5028262;28;20192;-54
2022/07/02 08:05:58;;;;;;;3.23;2.80;;;23.70;1.00;;;;;;5030850;28;20189;-56
2022/07/02 08:08:24;;;;;;;4.13;3.30;;;24.00;1.00;;;;;;5030101;28;20191;-55
2022/07/02 08:10:50;;;;;;;3.10;2.77;;;24.10;1.00;;;;;;5029614;28;20196;-56
2022/07/02 08:13:16;;;;;;;4.90;3.20;;;24.20;1.00;;;;;;5029051;28;20470;-56
2022/07/02 08:15:42;;;;;;;2.70;2.50;;;24.10;1.00;;;;;;5030759;28;20447;-53
2022/07/02 08:18:08;;;;;;;3.73;2.63;;;24.10;1.00;;;;;;5028267;28;20436;-54
2022/07/02 08:20:34;;;;;;;3.63;2.53;;;24.30;1.00;;;;;;5027733;28;20953;-55
2022/07/02 08:23:00;;;;;;;3.53;2.70;;;24.40;1.00;;;;;;5029768;28;20195;-56
2022/07/02 08:25:25;;;;;;;2.80;2.60;;;24.60;1.00;;;;;;5045542;28;20421;-56
2022/07/02 08:27:51;;;;;;;3.80;3.07;;;24.90;1.00;;;;;;5049888;28;20233;-54
2022/07/02 08:30:17;;;;;;;4.23;2.80;;;24.90;1.00;;;;;;5030386;28;20240;-55
2022/07/02 08:32:44;;;;;;;7.77;3.50;;;24.80;1.00;;;;;;5026226;28;20196;-54
2022/07/02 08:35:09;;;;;;;3.67;2.97;;;24.90;1.00;;;;;;5030810;28;20204;-54
2022/07/02 08:37:35;;;;;;;3.63;2.10;;;24.90;1.00;;;;;;5027466;28;20439;-56
2022/07/02 08:40:00;;;;;;;3.33;2.37;;;24.80;1.00;;;;;;5028929;28;20247;-54
2022/07/02 08:42:29;;;;;;;4.13;2.20;;;24.80;1.00;;;;;;5030018;28;20626;-55
2022/07/02 08:44:59;;;;;;;3.60;2.70;;;24.80;1.00;;;;;;5027420;28;20238;-54
2022/07/02 08:47:25;;;;;;;2.90;2.50;;;25.10;1.00;;;;;;5030245;28;20517;-54
2022/07/02 08:49:53;;;;;;;3.10;2.90;;;25.10;1.00;;;;;;5029145;28;20417;-55
2022/07/02 08:52:20;;;;;;;5.17;2.33;;;25.00;1.00;;;;;;5034538;28;20459;-55
2022/07/02 08:54:47;;;;;;;3.27;1.90;;;25.00;1.00;;;;;;5029747;28;20447;-53
2022/07/02 08:57:13;;;;;;;3.93;2.10;;;25.20;1.00;;;;;;5028678;28;20542;-53
2022/07/02 08:59:40;;;;;;;2.00;1.90;;;25.40;1.00;;;;;;5026518;28;20458;-53
2022/07/02 09:02:13;;;;;;;3.00;1.90;;;25.50;1.00;;;;;;5028125;28;20518;-53
2022/07/02 09:04:44;;;;;;;2.93;1.90;;;25.40;1.00;;;;;;5027069;28;20443;-54
2022/07/02 09:07:12;;;;;;;5.70;3.57;;;25.60;1.00;;;;;;5027258;28;20846;-56
2022/07/02 09:09:41;;;;;;;4.90;1.80;;;26.00;1.00;;;;;;5027237;28;20419;-53
2022/07/02 09:12:09;;;;;;;6.10;5.50;;;26.40;1.00;;;;;;5029802;28;20488;-52
2022/07/02 09:14:35;;;;;;;4.90;4.40;;;26.40;1.00;;;;;;5034145;28;20543;-54
2022/07/02 09:17:01;;;;;;;2.20;2.00;;;26.50;1.00;;;;;;5029820;28;20521;-55
2022/07/02 09:19:27;;;;;;;2.33;2.13;;;26.10;1.00;;;;;;5026546;28;20177;-52
2022/07/02 09:21:53;;;;;;;2.87;2.10;;;25.90;1.00;;;;;;5024181;28;20441;-55
2022/07/02 09:24:33;;;;;;;2.30;2.10;;;25.80;1.00;;;;;;5028780;28;20185;-55
2022/07/02 09:27:04;;;;;;;2.40;1.90;;;25.40;1.00;;;;;;5029565;28;20823;-55
2022/07/02 09:29:43;;;;;;;2.30;2.10;;;25.70;1.00;;;;;;5034794;28;21050;-54
2022/07/02 09:32:09;;;;;;;3.03;2.10;;;26.30;1.00;;;;;;5031520;28;20809;-54
2022/07/02 09:34:35;;;;;;;4.10;1.90;;;26.70;1.00;;;;;;5034773;28;20421;-54
2022/07/02 09:37:14;;;;;;;3.47;1.90;;;26.70;1.00;;;;;;5029886;28;20439;-53
2022/07/02 09:39:41;;;;;;;2.20;2.00;;;27.10;1.00;;;;;;5028533;28;20231;-54
2022/07/02 09:42:07;;;;;;;1.90;1.70;;;27.70;1.00;;;;;;5028893;28;21256;-54
2022/07/02 09:44:33;;;;;;;2.90;2.03;;;27.80;1.00;;;;;;5031934;28;20417;-55
2022/07/02 09:46:58;;;;;;;3.20;2.30;;;27.80;1.00;;;;;;5029368;28;20180;-53
2022/07/02 09:49:24;;;;;;;2.37;2.13;;;27.80;1.00;;;;;;5027630;28;20192;-55
2022/07/02 09:51:53;;;;;;;4.17;2.73;;;27.40;1.00;;;;;;5028627;28;20192;-53
2022/07/02 09:54:24;;;;;;;3.70;2.20;;;26.80;1.00;;;;;;5029151;28;20201;-54
2022/07/02 09:56:52;;;;;;;2.13;1.93;;;26.90;1.00;;;;;;5028796;28;20480;-55
2022/07/02 09:59:17;;;;;;;2.40;2.13;;;26.90;1.00;;;;;;5029736;28;20438;-53
2022/07/02 10:01:44;;;;;;;7.50;3.63;;;27.30;1.00;;;;;;5026515;28;20443;-53
2022/07/02 10:04:09;;;;;;;3.63;2.83;;;27.40;1.00;;;;;;5029108;28;20235;-54
2022/07/02 10:06:35;;;;;;;2.30;2.10;;;27.20;1.00;;;;;;5031797;28;20422;-54
2022/07/02 10:09:01;;;;;;;4.53;1.87;;;27.00;1.00;;;;;;5032067;28;20189;-55
2022/07/02 10:11:28;;;;;;;4.23;1.70;;;26.90;1.00;;;;;;5031480;28;20426;-56
2022/07/02 10:13:55;;;;;;;2.43;1.90;;;27.10;1.00;;;;;;5031907;28;20205;-55
2022/07/02 10:16:22;;;;;;;1.90;1.70;;;27.40;1.00;;;;;;5027927;28;20477;-55
2022/07/02 10:18:48;;;;;;;2.10;1.37;;;27.60;1.00;;;;;;5032791;28;20939;-54
2022/07/02 10:21:15;;;;;;;2.80;1.70;;;27.40;1.00;;;;;;5033685;28;20783;-56
2022/07/02 10:23:43;;;;;;;1.90;1.80;;;27.60;1.00;;;;;;5030970;28;21160;-56
2022/07/02 10:26:10;;;;;;;2.00;1.90;;;27.50;1.00;;;;;;5023019;28;20553;-54
2022/07/02 10:28:36;;;;;;;2.03;1.83;;;27.30;1.00;;;;;;5029252;28;20447;-55
2022/07/02 10:31:06;;;;;;;2.60;1.83;;;27.10;1.00;;;;;;5030876;28;20529;-54
2022/07/02 10:33:39;;;;;;;1.50;1.40;;;27.20;1.00;;;;;;5032706;28;20585;-54
2022/07/02 10:36:09;;;;;;;1.83;1.60;;;27.30;1.00;;;;;;5029712;28;20756;-54
2022/07/02 10:38:37;;;;;;;2.33;2.00;;;27.40;1.00;;;;;;5032614;28;20427;-55
2022/07/02 10:41:09;;;;;;;2.30;1.93;;;27.50;1.00;;;;;;5033742;28;20451;-54
2022/07/02 10:43:37;;;;;;;2.53;2.00;;;27.50;1.00;;;;;;5039632;28;20445;-54
2022/07/02 10:46:09;;;;;;;2.00;1.80;;;27.10;1.00;;;;;;5024947;28;20451;-52
2022/07/02 10:48:46;;;;;;;2.93;1.80;;;26.70;1.00;;;;;;5032518;28;20969;-54
2022/07/02 10:51:19;;;;;;;3.03;2.10;;;26.60;1.00;;;;;;5031351;28;20451;-53
2022/07/02 10:53:50;;;;;;;1.83;1.73;;;26.30;1.00;;;;;;5036353;28;20438;-55
2022/07/02 10:56:16;;;;;;;2.03;1.80;;;26.30;1.00;;;;;;5033018;28;20427;-53
2022/07/02 10:58:41;;;;;;;2.67;1.57;;;26.40;1.00;;;;;;5030604;28;20418;-55
2022/07/02 11:01:14;;;;;;;1.53;1.40;;;25.90;1.00;;;;;;5031875;28;20185;-54
2022/07/02 11:03:53;;;;;;;1.67;1.50;;;25.80;1.00;;;;;;5030588;28;20181;-55
2022/07/02 11:06:23;;;;;;;2.67;1.57;;;26.20;1.00;;;;;;5037839;28;20447;-57
2022/07/02 11:08:52;;;;;;;5.07;1.60;;;26.90;1.00;;;;;;5030766;28;20418;-54
2022/07/02 11:11:21;;;;;;;4.07;2.00;;;27.30;1.00;;;;;;5030115;28;21105;-53
2022/07/02 11:13:49;;;;;;;2.13;1.30;;;27.70;1.00;;;;;;5037787;28;20596;-54
2022/07/02 11:16:38;;;;;;;1.40;1.30;;;27.70;1.00;;;;;;5032916;28;20997;-54
2022/07/02 11:19:17;;;;;;;1.30;1.20;;;27.50;1.00;;;;;;5021831;28;20847;-54
2022/07/02 11:21:44;;;;;;;2.07;1.40;;;26.50;1.00;;;;;;5048243;28;20417;-52
2022/07/02 11:24:10;;;;;;;1.60;1.50;;;26.20;1.00;;;;;;5033011;28;20786;-53
2022/07/02 11:26:41;;;;;;;3.80;1.70;;;26.50;1.00;;;;;;5031429;28;20417;-53
2022/07/02 11:29:07;;;;;;;1.40;1.30;;;27.00;1.00;;;;;;5037223;28;20512;-54
2022/07/02 11:31:36;;;;;;;4.27;1.60;;;27.50;1.00;;;;;;5051240;28;20913;-56
2022/07/02 11:34:03;;;;;;;2.70;1.63;;;27.60;1.00;;;;;;5038391;28;20230;-56
2022/07/02 11:36:29;;;;;;;2.67;2.00;;;27.80;1.00;;;;;;5031019;28;20932;-52
2022/07/02 11:38:56;;;;;;;1.63;1.37;;;28.10;1.00;;;;;;5030021;28;20450;-55
2022/07/02 11:41:26;;;;;;;3.00;1.90;;;27.80;1.00;;;;;;5032492;28;20496;-55
2022/07/02 11:43:56;;;;;;;1.90;1.40;;;27.50;1.00;;;;;;5026742;28;20521;-56
2022/07/02 11:46:27;;;;;;;2.10;1.90;;;27.50;1.00;;;;;;5031385;28;20420;-53
2022/07/02 11:48:55;;;;;;;2.17;1.80;;;27.50;1.00;;;;;;5033610;28;20426;-54
2022/07/02 11:51:21;;;;;;;2.50;1.70;;;27.70;1.00;;;;;;5031403;28;20959;-54
2022/07/02 11:54:01;;;;;;;2.10;1.40;;;27.50;1.00;;;;;;5028325;28;20437;-54
2022/07/02 11:56:29;;;;;;;2.20;2.10;;;27.50;1.00;;;;;;5031142;28;20188;-54
2022/07/02 11:58:55;;;;;;;2.33;1.40;;;26.80;1.00;;;;;;5025023;28;20414;-55
2022/07/02 12:01:29;;;;;;;2.07;1.60;;;26.70;1.00;;;;;;5031126;28;20949;-55
2022/07/02 12:04:03;;;;;;;1.73;1.57;;;27.30;1.00;;;;;;5027309;28;20768;-55
2022/07/02 12:06:32;;;;;;;1.60;1.50;;;27.70;1.00;;;;;;5039482;28;20428;-55
2022/07/02 12:08:59;;;;;;;1.70;1.60;;;28.00;1.00;;;;;;5028914;28;20489;-53
2022/07/02 12:11:25;;;;;;;2.00;1.67;;;28.20;1.00;;;;;;5031159;28;20432;-53
2022/07/02 12:13:53;;;;;;;1.63;1.50;;;27.90;1.00;;;;;;5029775;28;20462;-55
2022/07/02 12:16:21;;;;;;;1.50;1.40;;;27.90;1.00;;;;;;5029893;28;20537;-56
2022/07/02 12:19:03;;;;;;;2.17;1.63;;;28.10;1.00;;;;;;5029434;28;20425;-56
2022/07/02 12:21:37;;;;;;;2.83;1.77;;;28.10;1.00;;;;;;5030807;28;21109;-53
2022/07/02 12:24:24;;;;;;;1.43;1.33;;;28.20;1.00;;;;;;5029217;28;20473;-56
2022/07/02 12:26:56;;;;;;;2.07;1.87;;;28.30;1.00;;;;;;5023777;28;20422;-54
2022/07/02 12:32:14;;;;;;;1.77;1.60;;;28.40;1.00;;;;;;5030590;28;20922;-56
2022/07/02 12:34:53;;;;;;;1.77;1.60;;;28.50;1.00;;;;;;5025437;28;20456;-53
2022/07/02 12:37:40;;;;;;;1.63;1.50;;;28.30;1.00;;;;;;5040832;28;20518;-55
2022/07/02 12:40:17;;;;;;;1.50;1.33;;;28.40;1.00;;;;;;5028806;28;20773;-53
2022/07/02 12:42:58;;;;;;;4.43;2.03;;;28.40;1.00;;;;;;5030402;28;20413;-55
2022/07/02 12:45:29;;;;;;;2.33;2.13;;;28.50;1.00;;;;;;5031534;28;20417;-54
2022/07/02 12:47:59;;;;;;;1.87;1.10;;;28.50;1.00;;;;;;5050171;28;20408;-53
2022/07/02 12:50:30;;;;;;;2.27;1.77;;;28.60;1.00;;;;;;5024130;28;21015;-55
2022/07/02 12:53:00;;;;;;;1.93;1.40;;;28.50;1.00;;;;;;5030330;28;20437;-54
2022/07/02 12:55:26;;;;;;;2.63;1.43;;;28.10;1.00;;;;;;5028090;28;20801;-53
2022/07/02 12:57:58;;;;;;;1.70;1.60;;;28.00;1.00;;;;;;5028763;28;20489;-55
2022/07/02 13:00:24;;;;;;;1.67;1.50;;;28.00;1.00;;;;;;5033931;28;20271;-56
2022/07/02 13:03:14;;;;;;;2.80;1.40;;;28.10;1.00;;;;;;5044888;28;22581;-54
2022/07/02 13:05:45;;;;;;;1.83;1.60;;;28.00;1.00;;;;;;5028909;28;20937;-53
2022/07/02 13:08:11;;;;;;;2.70;1.60;;;27.60;1.00;;;;;;5026629;28;20518;-54
2022/07/02 13:10:38;;;;;;;1.77;1.40;;;27.50;1.00;;;;;;5028498;28;20468;-55
2022/07/02 13:13:04;;;;;;;1.50;1.40;;;27.40;1.00;;;;;;5025152;28;20438;-53
2022/07/02 13:15:30;;;;;;;2.37;1.50;;;27.40;1.00;;;;;;5040219;28;20451;-56
2022/07/02 13:17:56;;;;;;;3.63;1.67;;;27.40;1.00;;;;;;5027425;28;20765;-55
2022/07/02 13:20:23;;;;;;;3.03;1.53;;;27.40;1.00;;;;;;5026720;28;20220;-52
2022/07/02 13:22:48;;;;;;;2.13;1.87;;;27.40;1.00;;;;;;5027519;28;20451;-54
2022/07/02 13:25:15;;;;;;;1.80;1.70;;;27.20;1.00;;;;;;5026166;28;20450;-54
2022/07/02 13:27:41;;;;;;;1.77;1.67;;;27.30;1.00;;;;;;5021481;28;20184;-55
2022/07/02 13:30:10;;;;;;;1.90;1.80;;;27.30;1.00;;;;;;5031220;28;20474;-56
2022/07/02 13:32:36;;;;;;;1.73;1.40;;;27.10;1.00;;;;;;5028087;28;20463;-57
2022/07/02 13:35:02;;;;;;;3.50;1.57;;;27.30;1.00;;;;;;5027764;28;20780;-56
2022/07/02 13:37:28;;;;;;;1.63;1.53;;;27.10;1.00;;;;;;5033730;28;20420;-55
2022/07/02 13:39:53;;;;;;;2.50;2.00;;;27.20;1.00;;;;;;5028333;28;20430;-52
2022/07/02 13:42:19;;;;;;;1.60;1.50;;;27.30;1.00;;;;;;5036207;28;20280;-53
2022/07/02 13:44:45;;;;;;;1.50;1.40;;;27.50;1.00;;;;;;5031888;28;20217;-53
2022/07/02 13:47:10;;;;;;;2.30;1.47;;;27.60;1.00;;;;;;5032267;28;20279;-56
2022/07/02 13:49:36;;;;;;;5.23;1.57;;;27.70;1.00;;;;;;5032572;28;20193;-53
2022/07/02 13:52:02;;;;;;;2.60;1.70;;;27.70;1.00;;;;;;5043855;28;20620;-55
2022/07/02 13:54:28;;;;;;;1.87;1.63;;;27.60;1.00;;;;;;5033304;28;20213;-54
2022/07/02 13:56:53;;;;;;;4.27;1.67;;;27.60;1.00;;;;;;5033449;28;20184;-55
2022/07/02 13:59:19;;;;;;;1.57;1.47;;;27.60;1.00;;;;;;5032329;28;20424;-54
2022/07/02 14:01:44;;;;;;;1.70;1.60;;;27.70;1.00;;;;;;5031901;28;20321;-56
2022/07/02 14:04:10;;;;;;;2.27;1.60;;;27.70;1.00;;;;;;5030182;28;20250;-51
2022/07/02 14:06:36;;;;;;;2.40;1.83;;;27.70;1.00;;;;;;5032878;28;20246;-54
2022/07/02 14:09:03;;;;;;;1.87;1.47;;;27.40;1.00;;;;;;5033447;28;20587;-54
2022/07/02 14:11:29;;;;;;;3.10;1.60;;;27.60;1.00;;;;;;5032083;28;20243;-55
2022/07/02 14:13:54;;;;;;;1.70;1.60;;;27.60;1.00;;;;;;5031767;28;20459;-55
2022/07/02 14:16:20;;;;;;;2.57;1.47;;;28.30;1.00;;;;;;5030068;28;20181;-53